createdAt,value
2022-09-17T00:01:10.773Z,2.33
2022-09-17T00:02:22.808Z,2.70
2022-09-17T00:03:35.122Z,2.03
2022-09-17T00:04:47.889Z,2.30
2022-09-17T00:06:01.041Z,2.63
2022-09-17T00:07:12.551Z,2.93
2022-09-17T00:08:24.008Z,2.13
2022-09-17T00:09:35.581Z,2.50
2022-09-17T00:10:46.994Z,2.57
2022-09-17T00:11:58.493Z,2.20
2022-09-17T00:13:10.284Z,2.47
2022-09-17T00:14:21.733Z,1.67
2022-09-17T00:15:33.223Z,2.50
2022-09-17T00:16:46.048Z,2.17
2022-09-17T00:17:58.394Z,2.10
2022-09-17T00:19:14.221Z,2.60
2022-09-17T00:20:26.338Z,2.30
2022-09-17T00:21:37.919Z,1.93
2022-09-17T00:22:49.371Z,2.53
2022-09-17T00:24:02.022Z,2.43
2022-09-17T00:25:13.478Z,2.30
2022-09-17T00:26:24.996Z,2.70
2022-09-17T00:27:36.608Z,2.23
2022-09-17T00:28:52.096Z,2.57
2022-09-17T00:30:03.878Z,2.10
2022-09-17T00:31:15.414Z,2.30
2022-09-17T00:32:27.500Z,2.50
2022-09-17T00:33:38.961Z,3.07
2022-09-17T00:34:52.236Z,2.93
2022-09-17T00:36:04.768Z,2.63
2022-09-17T00:37:16.454Z,2.20
2022-09-17T00:38:28.173Z,1.90
2022-09-17T00:39:39.581Z,2.30
2022-09-17T00:40:51.223Z,2.67
2022-09-17T00:42:05.684Z,2.60
2022-09-17T00:43:52.730Z,2.50
2022-09-17T00:45:04.521Z,2.40
2022-09-17T00:46:18.969Z,2.57
2022-09-17T00:47:34.805Z,2.50
2022-09-17T00:48:47.016Z,3.17
2022-09-17T00:50:05.676Z,2.73
2022-09-17T00:51:20.410Z,2.77
2022-09-17T00:53:01.173Z,2.97
2022-09-17T00:54:12.962Z,2.37
2022-09-17T00:55:24.373Z,2.67
2022-09-17T00:56:37.091Z,2.20
2022-09-17T00:57:49.849Z,2.87
2022-09-17T00:59:01.675Z,2.83
2022-09-17T01:00:14.425Z,2.93
2022-09-17T01:01:25.970Z,2.07
2022-09-17T01:02:37.807Z,2.43
2022-09-17T01:03:49.415Z,2.73
2022-09-17T01:05:01.000Z,2.43
2022-09-17T01:06:18.160Z,1.93
2022-09-17T01:07:41.834Z,2.53
2022-09-17T01:08:59.827Z,2.17
2022-09-17T01:10:11.241Z,2.47
2022-09-17T01:11:31.024Z,3.53
2022-09-17T01:12:50.270Z,3.10
2022-09-17T01:14:04.843Z,2.63
2022-09-17T01:15:33.185Z,2.20
2022-09-17T01:16:50.418Z,2.13
2022-09-17T01:18:09.697Z,2.17
2022-09-17T01:19:22.257Z,2.57
2022-09-17T01:20:52.240Z,2.47
2022-09-17T01:22:07.557Z,2.70
2022-09-17T01:23:42.253Z,2.07
2022-09-17T01:24:53.666Z,2.77
2022-09-17T01:26:07.963Z,3.30
2022-09-17T01:27:27.297Z,2.77
2022-09-17T01:28:42.529Z,2.50
2022-09-17T01:30:12.496Z,1.93
2022-09-17T01:31:30.621Z,2.20
2022-09-17T01:32:47.098Z,2.77
2022-09-17T01:34:21.016Z,2.13
2022-09-17T01:35:46.376Z,2.23
2022-09-17T01:37:03.977Z,2.67
2022-09-17T01:38:21.454Z,2.60
2022-09-17T01:39:35.682Z,2.37
2022-09-17T01:40:51.045Z,2.53
2022-09-17T01:42:17.767Z,2.53
2022-09-17T01:43:52.533Z,2.73
2022-09-17T01:45:17.626Z,2.07
2022-09-17T01:46:34.354Z,2.67
2022-09-17T01:48:07.478Z,2.80
2022-09-17T01:49:19.602Z,2.67
2022-09-17T01:50:33.614Z,2.80
2022-09-17T01:51:46.974Z,2.30
2022-09-17T01:52:58.840Z,2.87
2022-09-17T01:54:15.139Z,2.10
2022-09-17T01:55:29.790Z,2.77
2022-09-17T01:56:48.663Z,2.60
2022-09-17T01:58:02.926Z,2.97
2022-09-17T01:59:17.720Z,2.57
2022-09-17T02:00:29.518Z,2.33
2022-09-17T02:01:42.096Z,3.43
2022-09-17T02:03:05.915Z,2.37
2022-09-17T02:04:23.246Z,2.93
2022-09-17T02:05:39.596Z,2.83
2022-09-17T02:06:52.907Z,2.60
2022-09-17T02:08:25.457Z,2.83
2022-09-17T02:09:38.722Z,2.63
2022-09-17T02:10:54.913Z,2.37
2022-09-17T02:12:10.025Z,3.00
2022-09-17T02:13:33.477Z,2.63
2022-09-17T02:14:50.182Z,2.07
2022-09-17T02:16:04.981Z,2.50
2022-09-17T02:17:20.129Z,2.60
2022-09-17T02:18:40.145Z,2.87
2022-09-17T02:19:53.746Z,2.60
2022-09-17T02:21:16.219Z,2.93
2022-09-17T02:22:44.730Z,3.13
2022-09-17T02:24:05.069Z,2.57
2022-09-17T02:25:16.931Z,2.73
2022-09-17T02:26:28.977Z,3.57
2022-09-17T02:27:55.502Z,3.37
2022-09-17T02:29:13.260Z,2.43
2022-09-17T02:30:24.759Z,3.47
2022-09-17T02:31:36.291Z,3.00
2022-09-17T02:32:48.511Z,3.70
2022-09-17T02:34:01.579Z,2.83
2022-09-17T02:35:16.049Z,2.90
2022-09-17T02:36:27.983Z,3.40
2022-09-17T02:37:39.938Z,2.97
2022-09-17T02:38:55.371Z,2.97
2022-09-17T02:40:07.428Z,2.97
2022-09-17T02:41:23.818Z,3.50
2022-09-17T02:42:35.283Z,2.73
2022-09-17T02:43:56.306Z,3.50
2022-09-17T02:45:19.852Z,3.17
2022-09-17T02:46:50.196Z,2.63
2022-09-17T02:48:16.701Z,2.90
2022-09-17T02:49:38.593Z,2.73
2022-09-17T02:50:50.016Z,3.57
2022-09-17T02:52:20.133Z,3.33
2022-09-17T02:53:31.535Z,3.87
2022-09-17T02:54:57.271Z,3.00
2022-09-17T02:56:08.936Z,2.40
2022-09-17T02:57:22.637Z,2.83
2022-09-17T02:58:38.267Z,3.10
2022-09-17T02:59:52.464Z,2.53
2022-09-17T03:01:06.758Z,2.83
2022-09-17T03:02:20.768Z,2.60
2022-09-17T03:03:39.794Z,2.63
2022-09-17T03:04:52.598Z,2.60
2022-09-17T03:06:04.926Z,3.30
2022-09-17T03:07:17.487Z,2.90
2022-09-17T03:08:30.335Z,2.30
2022-09-17T03:09:43.501Z,3.00
2022-09-17T03:10:54.982Z,3.23
2022-09-17T03:12:06.487Z,3.30
2022-09-17T03:13:17.925Z,2.93
2022-09-17T03:14:29.387Z,2.63
2022-09-17T03:15:40.989Z,3.13
2022-09-17T03:16:52.416Z,2.67
2022-09-17T03:18:03.999Z,2.40
2022-09-17T03:19:15.525Z,2.63
2022-09-17T03:20:26.966Z,2.50
2022-09-17T03:21:38.389Z,2.47
2022-09-17T03:22:51.679Z,3.27
2022-09-17T03:24:03.189Z,2.80
2022-09-17T03:25:14.709Z,2.63
2022-09-17T03:26:26.892Z,2.70
2022-09-17T03:27:38.326Z,2.87
2022-09-17T03:28:49.748Z,2.93
2022-09-17T03:30:01.276Z,2.90
2022-09-17T03:31:12.755Z,3.47
2022-09-17T03:32:24.247Z,3.63
2022-09-17T03:33:35.680Z,2.67
2022-09-17T03:34:47.170Z,3.10
2022-09-17T03:35:58.614Z,2.33
2022-09-17T03:37:10.105Z,2.93
2022-09-17T03:38:21.916Z,3.47
2022-09-17T03:39:33.644Z,3.23
2022-09-17T03:40:45.112Z,3.13
2022-09-17T03:41:56.710Z,2.93
2022-09-17T03:43:08.164Z,3.07
2022-09-17T03:44:19.939Z,3.27
2022-09-17T03:45:31.611Z,2.47
2022-09-17T03:46:43.139Z,2.97
2022-09-17T03:47:55.765Z,4.10
2022-09-17T03:49:07.213Z,3.50
2022-09-17T03:50:18.648Z,4.13
2022-09-17T03:51:30.191Z,2.87
2022-09-17T03:52:43.040Z,3.53
2022-09-17T03:53:54.486Z,2.83
2022-09-17T03:55:06.191Z,3.10
2022-09-17T03:56:17.854Z,4.03
2022-09-17T03:57:29.437Z,2.87
2022-09-17T03:58:40.894Z,3.33
2022-09-17T03:59:52.741Z,2.80
2022-09-17T04:01:04.753Z,2.73
2022-09-17T04:02:16.283Z,3.33
2022-09-17T04:03:28.190Z,2.60
2022-09-17T04:04:39.619Z,2.63
2022-09-17T04:05:51.267Z,3.80
2022-09-17T04:07:02.707Z,3.10
2022-09-17T04:08:14.245Z,2.83
2022-09-17T04:09:26.755Z,2.50
2022-09-17T04:10:38.296Z,2.93
2022-09-17T04:11:49.744Z,2.97
2022-09-17T04:13:01.216Z,2.97
2022-09-17T04:14:12.655Z,3.40
2022-09-17T04:15:24.110Z,4.17
2022-09-17T04:16:35.600Z,2.97
2022-09-17T04:17:47.114Z,2.83
2022-09-17T04:18:58.633Z,3.17
2022-09-17T04:20:10.216Z,3.37
2022-09-17T04:21:21.702Z,4.10
2022-09-17T04:22:33.198Z,2.90
2022-09-17T04:23:44.680Z,4.10
2022-09-17T04:24:56.140Z,3.67
2022-09-17T04:26:07.595Z,3.17
2022-09-17T04:27:19.196Z,3.80
2022-09-17T04:28:30.693Z,4.17
2022-09-17T04:29:42.116Z,3.40
2022-09-17T04:30:53.615Z,3.83
2022-09-17T04:32:05.277Z,3.17
2022-09-17T04:33:16.693Z,3.27
2022-09-17T04:34:28.527Z,3.07
2022-09-17T04:35:40.047Z,3.37
2022-09-17T04:36:51.558Z,3.70
2022-09-17T04:38:03.291Z,3.27
2022-09-17T04:39:14.775Z,3.83
2022-09-17T04:40:27.008Z,3.60
2022-09-17T04:41:38.525Z,3.90
2022-09-17T04:42:52.754Z,4.10
2022-09-17T04:44:04.210Z,4.67
2022-09-17T04:45:15.700Z,4.77
2022-09-17T04:46:27.200Z,3.53
2022-09-17T04:47:39.736Z,3.47
2022-09-17T04:48:51.153Z,3.40
2022-09-17T04:50:02.589Z,3.80
2022-09-17T04:51:14.082Z,2.93
2022-09-17T04:52:30.275Z,3.70
2022-09-17T04:53:42.455Z,3.23
2022-09-17T04:54:56.490Z,3.07
2022-09-17T04:56:07.938Z,3.60
2022-09-17T04:57:19.456Z,4.17
2022-09-17T04:58:32.866Z,3.63
2022-09-17T04:59:44.415Z,3.50
2022-09-17T05:00:55.905Z,3.87
2022-09-17T05:02:07.469Z,4.13
2022-09-17T05:03:19.023Z,3.67
2022-09-17T05:04:30.456Z,3.23
2022-09-17T05:05:41.885Z,4.27
2022-09-17T05:06:53.346Z,3.90
2022-09-17T05:08:04.865Z,2.97
2022-09-17T05:09:16.507Z,3.37
2022-09-17T05:10:28.205Z,3.30
2022-09-17T05:11:39.773Z,3.87
2022-09-17T05:12:52.353Z,2.87
2022-09-17T05:14:03.962Z,3.23
2022-09-17T05:15:15.422Z,3.87
2022-09-17T05:16:27.125Z,3.20
2022-09-17T05:17:38.575Z,4.80
2022-09-17T05:18:51.717Z,3.70
2022-09-17T05:20:03.511Z,4.80
2022-09-17T05:21:15.131Z,4.13
2022-09-17T05:22:26.562Z,4.53
2022-09-17T05:23:37.992Z,4.27
2022-09-17T05:24:49.472Z,3.93
2022-09-17T05:26:00.972Z,3.57
2022-09-17T05:27:12.541Z,3.30
2022-09-17T05:28:24.105Z,3.53
2022-09-17T05:29:36.837Z,3.40
2022-09-17T05:30:48.284Z,3.03
2022-09-17T05:31:59.727Z,4.13
2022-09-17T05:33:11.153Z,3.43
2022-09-17T05:34:22.608Z,4.03
2022-09-17T05:35:35.848Z,4.43
2022-09-17T05:36:47.305Z,3.87
2022-09-17T05:38:02.075Z,3.23
2022-09-17T05:39:13.567Z,3.43
2022-09-17T05:40:25.598Z,3.97
2022-09-17T05:41:37.049Z,3.10
2022-09-17T05:42:48.476Z,4.23
2022-09-17T05:43:59.921Z,3.67
2022-09-17T05:45:11.376Z,3.87
2022-09-17T05:46:23.023Z,3.10
2022-09-17T05:47:35.461Z,3.87
2022-09-17T05:48:46.883Z,3.30
2022-09-17T05:49:58.487Z,3.57
2022-09-17T05:51:09.937Z,3.97
2022-09-17T05:52:21.519Z,3.10
2022-09-17T05:53:33.161Z,3.87
2022-09-17T05:54:44.861Z,3.43
2022-09-17T05:55:57.319Z,3.57
2022-09-17T05:57:09.124Z,4.80
2022-09-17T05:58:20.608Z,3.30
2022-09-17T05:59:32.100Z,3.53
2022-09-17T06:00:43.760Z,3.93
2022-09-17T06:01:55.504Z,4.00
2022-09-17T06:03:08.099Z,3.97
2022-09-17T06:04:19.651Z,3.63
2022-09-17T06:05:31.236Z,3.47
2022-09-17T06:06:42.707Z,3.93
2022-09-17T06:07:54.271Z,3.77
2022-09-17T06:09:06.350Z,2.90
2022-09-17T06:10:17.892Z,3.20
2022-09-17T06:11:29.526Z,3.20
2022-09-17T06:12:41.058Z,2.93
2022-09-17T06:13:55.756Z,3.10
2022-09-17T06:15:07.474Z,4.37
2022-09-17T06:16:19.015Z,3.17
2022-09-17T06:17:35.039Z,3.67
2022-09-17T06:18:46.514Z,3.77
2022-09-17T06:19:59.331Z,3.70
2022-09-17T06:21:10.778Z,4.20
2022-09-17T06:22:22.457Z,6.30
2022-09-17T06:23:35.383Z,5.13
2022-09-17T06:24:46.919Z,3.63
2022-09-17T06:25:58.960Z,4.57
2022-09-17T06:27:10.400Z,3.63
2022-09-17T06:28:21.861Z,7.70
2022-09-17T06:29:33.284Z,9.43
2022-09-17T06:30:44.730Z,6.90
2022-09-17T06:31:56.283Z,4.40
2022-09-17T06:33:07.755Z,5.20
2022-09-17T06:34:19.215Z,27.73
2022-09-17T06:35:30.643Z,44.07
2022-09-17T06:36:42.098Z,23.27
2022-09-17T06:37:53.534Z,6.00
2022-09-17T06:39:05.027Z,5.20
2022-09-17T06:40:16.657Z,23.03
2022-09-17T06:41:28.163Z,17.00
2022-09-17T06:42:39.638Z,11.17
2022-09-17T06:43:52.779Z,11.33
2022-09-17T06:45:09.280Z,11.77
2022-09-17T06:46:21.834Z,6.63
2022-09-17T06:47:33.309Z,5.57
2022-09-17T06:48:44.738Z,7.73
2022-09-17T06:49:57.187Z,22.00
2022-09-17T06:51:10.293Z,41.63
2022-09-17T06:52:21.720Z,58.73
2022-09-17T06:53:33.197Z,29.93
2022-09-17T06:54:44.623Z,38.47
2022-09-17T06:56:03.558Z,34.73
2022-09-17T06:57:15.285Z,9.13
2022-09-17T06:58:26.880Z,13.63
2022-09-17T06:59:38.294Z,8.63
2022-09-17T07:00:49.771Z,8.33
2022-09-17T07:02:01.325Z,8.00
2022-09-17T07:03:12.865Z,14.83
2022-09-17T07:04:24.436Z,18.63
2022-09-17T07:05:35.938Z,15.00
2022-09-17T07:06:47.424Z,12.33
2022-09-17T07:08:01.187Z,8.47
2022-09-17T07:09:12.739Z,10.43
2022-09-17T07:10:24.436Z,7.53
2022-09-17T07:11:36.010Z,4.70
2022-09-17T07:12:49.958Z,5.03
2022-09-17T07:14:01.984Z,4.90
2022-09-17T07:15:15.876Z,7.53
2022-09-17T07:16:28.246Z,4.90
2022-09-17T07:17:40.653Z,3.97
2022-09-17T07:18:52.491Z,5.53
2022-09-17T07:20:04.122Z,15.40
2022-09-17T07:21:15.538Z,32.63
2022-09-17T07:22:27.010Z,26.73
2022-09-17T07:23:38.479Z,6.90
2022-09-17T07:24:50.023Z,9.43
2022-09-17T07:26:03.609Z,4.17
2022-09-17T07:27:15.044Z,7.87
2022-09-17T07:28:27.070Z,5.30
2022-09-17T07:29:38.555Z,7.40
2022-09-17T07:30:50.820Z,5.23
2022-09-17T07:32:02.396Z,4.27
2022-09-17T07:33:13.899Z,4.33
2022-09-17T07:34:28.167Z,3.37
2022-09-17T07:35:39.782Z,3.70
2022-09-17T07:36:51.220Z,3.00
2022-09-17T07:38:02.629Z,4.10
2022-09-17T07:39:14.067Z,3.67
2022-09-17T07:40:25.547Z,3.50
2022-09-17T07:41:37.025Z,3.50
2022-09-17T07:42:48.480Z,3.07
2022-09-17T07:44:02.505Z,2.97
2022-09-17T07:45:14.016Z,2.53
2022-09-17T07:46:26.146Z,2.80
2022-09-17T07:47:41.466Z,2.43
2022-09-17T07:48:52.909Z,3.13
2022-09-17T07:50:04.446Z,2.97
2022-09-17T07:51:16.784Z,7.77
2022-09-17T07:52:28.213Z,3.40
2022-09-17T07:53:39.661Z,3.93
2022-09-17T07:54:51.088Z,10.67
2022-09-17T07:56:02.528Z,23.17
2022-09-17T07:57:14.087Z,9.47
2022-09-17T07:58:29.877Z,5.10
2022-09-17T07:59:41.358Z,10.33
2022-09-17T08:00:52.815Z,3.20
2022-09-17T08:02:04.407Z,11.87
2022-09-17T08:03:16.297Z,10.93
2022-09-17T08:04:27.729Z,9.80
2022-09-17T08:05:39.218Z,14.20
2022-09-17T08:06:50.704Z,3.37
2022-09-17T08:08:04.982Z,14.17
2022-09-17T08:09:17.048Z,5.27
2022-09-17T08:10:28.524Z,2.97
2022-09-17T08:11:56.676Z,4.57
2022-09-17T08:13:08.463Z,10.30
2022-09-17T08:14:20.008Z,3.73
2022-09-17T08:15:31.530Z,2.57
2022-09-17T08:16:43.172Z,3.80
2022-09-17T08:17:54.843Z,3.53
2022-09-17T08:19:06.576Z,4.17
2022-09-17T08:20:19.004Z,7.80
2022-09-17T08:21:30.457Z,5.03
2022-09-17T08:22:44.765Z,2.87
2022-09-17T08:23:58.333Z,4.03
2022-09-17T08:25:10.427Z,4.10
2022-09-17T08:26:23.052Z,3.67
2022-09-17T08:27:34.590Z,3.33
2022-09-17T08:28:49.629Z,3.77
2022-09-17T08:30:01.057Z,3.47
2022-09-17T08:31:12.629Z,3.97
2022-09-17T08:32:24.555Z,3.60
2022-09-17T08:33:36.935Z,4.03
2022-09-17T08:34:48.415Z,3.70
2022-09-17T08:36:00.569Z,8.33
2022-09-17T08:37:12.275Z,5.97
2022-09-17T08:38:23.733Z,14.63
2022-09-17T08:39:35.182Z,8.60
2022-09-17T08:41:09.955Z,4.23
2022-09-17T08:42:27.936Z,3.20
2022-09-17T08:43:47.189Z,3.93
2022-09-17T08:45:00.868Z,3.97
2022-09-17T08:46:12.694Z,3.30
2022-09-17T08:47:24.197Z,5.30
2022-09-17T08:48:39.683Z,10.10
2022-09-17T08:49:54.031Z,4.07
2022-09-17T08:51:16.098Z,4.20
2022-09-17T08:52:46.147Z,6.37
2022-09-17T08:54:16.235Z,3.80
2022-09-17T08:55:29.192Z,3.63
2022-09-17T08:56:42.422Z,3.37
2022-09-17T08:57:59.917Z,3.37
2022-09-17T08:59:21.631Z,3.33
2022-09-17T09:00:39.134Z,3.67
2022-09-17T09:01:53.691Z,3.60
2022-09-17T09:03:08.754Z,3.13
2022-09-17T09:04:20.161Z,4.03
2022-09-17T09:05:57.972Z,3.50
2022-09-17T09:07:12.613Z,3.30
2022-09-17T09:08:43.279Z,3.33
2022-09-17T09:10:04.448Z,3.70
2022-09-17T09:11:26.516Z,2.53
2022-09-17T09:12:38.575Z,4.23
2022-09-17T09:13:54.367Z,3.37
2022-09-17T09:15:06.102Z,2.58
2022-09-17T09:16:20.347Z,3.65
2022-09-17T09:17:42.648Z,3.67
2022-09-17T09:18:59.982Z,3.75
2022-09-17T09:20:34.316Z,2.95
2022-09-17T09:21:53.058Z,2.47
2022-09-17T09:23:33.814Z,2.63
2022-09-17T09:24:45.242Z,2.00
2022-09-17T09:26:15.264Z,2.30
2022-09-17T09:27:32.937Z,2.33
2022-09-17T09:28:50.456Z,2.33
2022-09-17T09:30:04.315Z,2.45
2022-09-17T09:31:18.803Z,2.30
2022-09-17T09:32:42.282Z,2.47
2022-09-17T09:33:53.924Z,2.35
2022-09-17T09:35:16.248Z,3.00
2022-09-17T09:36:28.892Z,2.05
2022-09-17T09:37:43.134Z,1.98
2022-09-17T09:39:02.917Z,2.97
2022-09-17T09:40:32.033Z,3.72
2022-09-17T09:41:48.944Z,2.22
2022-09-17T09:43:01.783Z,2.42
2022-09-17T09:44:14.550Z,2.92
2022-09-17T09:45:31.937Z,2.83
2022-09-17T09:46:43.463Z,2.20
2022-09-17T09:48:21.349Z,2.15
2022-09-17T09:49:35.589Z,2.88
2022-09-17T09:51:05.601Z,2.55
2022-09-17T09:52:27.016Z,3.85
2022-09-17T09:53:47.546Z,5.13
2022-09-17T09:54:58.950Z,13.40
2022-09-17T09:56:31.111Z,2.92
2022-09-17T09:57:50.211Z,6.80
2022-09-17T09:59:01.684Z,3.13
2022-09-17T10:00:25.892Z,2.08
2022-09-17T10:01:40.369Z,1.63
2022-09-17T10:02:54.022Z,1.70
2022-09-17T10:04:14.866Z,2.10
2022-09-17T10:05:27.680Z,1.50
2022-09-17T10:06:39.136Z,1.70
2022-09-17T10:07:50.793Z,2.17
2022-09-17T10:09:02.339Z,4.45
2022-09-17T10:10:13.908Z,2.20
2022-09-17T10:11:26.694Z,2.20
2022-09-17T10:12:38.522Z,2.63
2022-09-17T10:13:50.186Z,3.93
2022-09-17T10:15:21.569Z,3.07
2022-09-17T10:16:36.339Z,3.10
2022-09-17T10:17:48.490Z,1.97
2022-09-17T10:19:06.603Z,2.13
2022-09-17T10:20:22.726Z,2.93
2022-09-17T10:21:34.776Z,1.83
2022-09-17T10:22:46.759Z,3.23
2022-09-17T10:23:58.597Z,2.60
2022-09-17T10:25:28.601Z,2.80
2022-09-17T10:26:40.030Z,1.83
2022-09-17T10:27:51.655Z,1.67
2022-09-17T10:29:05.098Z,1.73
2022-09-17T10:30:17.684Z,2.27
2022-09-17T10:31:45.987Z,1.93
2022-09-17T10:33:17.068Z,2.13
2022-09-17T10:34:30.227Z,2.00
2022-09-17T10:35:53.911Z,1.70
2022-09-17T10:37:05.337Z,7.87
2022-09-17T10:38:29.103Z,2.43
2022-09-17T10:39:49.601Z,1.90
2022-09-17T10:41:11.125Z,2.17
2022-09-17T10:42:22.565Z,2.70
2022-09-17T10:43:34.027Z,1.73
2022-09-17T10:45:11.577Z,1.90
2022-09-17T10:46:27.822Z,1.67
2022-09-17T10:47:43.904Z,1.80
2022-09-17T10:49:14.020Z,1.77
2022-09-17T10:50:35.752Z,1.87
2022-09-17T10:51:47.313Z,2.10
2022-09-17T10:53:06.563Z,1.83
2022-09-17T10:54:18.175Z,2.37
2022-09-17T10:55:36.010Z,2.97
2022-09-17T10:56:51.214Z,2.43
2022-09-17T10:58:05.550Z,2.43
2022-09-17T10:59:52.608Z,2.30
2022-09-17T11:01:11.096Z,3.07
2022-09-17T11:02:31.533Z,2.40
2022-09-17T11:03:45.828Z,2.87
2022-09-17T11:05:15.873Z,2.80
2022-09-17T11:06:34.621Z,2.40
2022-09-17T11:07:58.373Z,2.37
2022-09-17T11:09:16.203Z,2.70
2022-09-17T11:10:27.645Z,3.07
2022-09-17T11:11:51.288Z,2.73
2022-09-17T11:13:08.824Z,2.60
2022-09-17T11:14:36.091Z,2.90
2022-09-17T11:16:06.186Z,2.30
2022-09-17T11:17:36.478Z,3.27
2022-09-17T11:19:02.676Z,3.30
2022-09-17T11:20:40.546Z,3.47
2022-09-17T11:22:01.455Z,2.40
2022-09-17T11:23:12.882Z,2.73
2022-09-17T11:24:32.640Z,3.20
2022-09-17T11:25:57.183Z,2.10
2022-09-17T11:27:23.433Z,2.60
2022-09-17T11:28:34.966Z,2.50
2022-09-17T11:29:58.696Z,3.08
2022-09-17T11:31:10.238Z,3.13
2022-09-17T11:32:40.459Z,2.47
2022-09-17T11:34:10.535Z,5.40
2022-09-17T11:35:24.374Z,2.55
2022-09-17T11:36:57.233Z,2.90
2022-09-17T11:38:12.381Z,2.40
2022-09-17T11:39:36.672Z,1.67
2022-09-17T11:40:50.643Z,1.63
2022-09-17T11:42:04.035Z,2.43
2022-09-17T11:43:15.612Z,1.57
2022-09-17T11:44:38.539Z,1.70
2022-09-17T11:46:08.661Z,1.20
2022-09-17T11:47:26.149Z,1.60
2022-09-17T11:48:46.567Z,1.10
2022-09-17T11:50:03.730Z,1.27
2022-09-17T11:51:35.417Z,1.40
2022-09-17T11:52:53.970Z,1.23
2022-09-17T11:54:15.744Z,1.17
2022-09-17T11:55:31.595Z,1.37
2022-09-17T11:56:44.552Z,1.10
2022-09-17T11:58:14.285Z,1.27
2022-09-17T11:59:37.927Z,1.03
2022-09-17T12:00:51.478Z,0.90
2022-09-17T12:02:14.622Z,1.13
2022-09-17T12:03:33.135Z,1.10
2022-09-17T12:04:47.698Z,1.13
2022-09-17T12:06:01.481Z,0.77
2022-09-17T12:07:16.293Z,1.10
2022-09-17T12:08:31.026Z,1.23
2022-09-17T12:09:45.020Z,1.03
2022-09-17T12:11:02.026Z,0.80
2022-09-17T12:12:47.783Z,1.53
2022-09-17T12:13:57.895Z,1.20
2022-09-17T12:15:18.839Z,1.10
2022-09-17T12:16:33.388Z,1.07
2022-09-17T12:17:49.431Z,0.90
2022-09-17T12:19:05.421Z,1.37
2022-09-17T12:20:27.429Z,1.10
2022-09-17T12:21:44.895Z,2.13
2022-09-17T12:22:57.552Z,1.40
2022-09-17T12:24:18.846Z,1.33
2022-09-17T12:25:34.477Z,1.37
2022-09-17T12:26:53.888Z,1.20
2022-09-17T12:28:12.570Z,1.00
2022-09-17T12:29:29.948Z,1.60
2022-09-17T12:30:51.728Z,2.17
2022-09-17T12:32:03.607Z,1.13
2022-09-17T12:33:34.192Z,1.00
2022-09-17T12:34:58.566Z,1.43
2022-09-17T12:36:32.982Z,1.00
2022-09-17T12:38:02.572Z,1.20
2022-09-17T12:39:15.300Z,0.97
2022-09-17T12:40:29.738Z,1.20
2022-09-17T12:41:56.353Z,1.77
2022-09-17T12:43:16.919Z,2.13
2022-09-17T12:44:28.308Z,1.90
2022-09-17T12:45:50.583Z,1.10
2022-09-17T12:47:15.209Z,1.70
2022-09-17T12:48:45.306Z,1.60
2022-09-17T12:49:56.737Z,1.43
2022-09-17T12:51:19.758Z,1.97
2022-09-17T12:52:52.903Z,1.40
2022-09-17T12:54:07.191Z,1.20
2022-09-17T12:55:24.897Z,1.43
2022-09-17T12:56:48.550Z,1.10
2022-09-17T12:58:20.421Z,1.27
2022-09-17T12:59:34.474Z,1.50
2022-09-17T13:00:52.372Z,1.30
2022-09-17T13:02:18.827Z,1.30
2022-09-17T13:03:44.825Z,1.50
2022-09-17T13:05:06.485Z,1.70
2022-09-17T13:06:17.924Z,2.03
2022-09-17T13:07:48.852Z,1.97
2022-09-17T13:09:10.154Z,1.60
2022-09-17T13:10:40.287Z,1.53
2022-09-17T13:11:57.586Z,2.00
2022-09-17T13:13:11.776Z,1.33
2022-09-17T13:14:29.751Z,1.27
2022-09-17T13:15:54.539Z,2.40
2022-09-17T13:17:12.257Z,1.52
2022-09-17T13:18:27.927Z,1.60
2022-09-17T13:19:47.950Z,1.55
2022-09-17T13:21:14.198Z,2.30
2022-09-17T13:22:34.200Z,1.43
2022-09-17T13:23:48.709Z,1.50
2022-09-17T13:25:07.692Z,1.95
2022-09-17T13:26:20.057Z,1.48
2022-09-17T13:27:31.805Z,1.83
2022-09-17T13:28:47.564Z,1.55
2022-09-17T13:29:59.638Z,1.40
2022-09-17T13:31:12.044Z,1.40
2022-09-17T13:32:32.518Z,1.90
2022-09-17T13:33:57.676Z,2.22
2022-09-17T13:35:15.235Z,2.22
2022-09-17T13:36:41.907Z,1.75
2022-09-17T13:37:53.874Z,1.80
2022-09-17T13:39:06.722Z,1.45
2022-09-17T13:40:24.909Z,2.30
2022-09-17T13:41:38.943Z,2.55
2022-09-17T13:42:57.350Z,1.92
2022-09-17T13:44:10.732Z,1.45
2022-09-17T13:45:23.378Z,1.65
2022-09-17T13:46:35.525Z,1.73
2022-09-17T13:47:58.473Z,1.55
2022-09-17T13:49:14.923Z,1.63
2022-09-17T13:50:37.009Z,2.10
2022-09-17T13:51:49.890Z,1.50
2022-09-17T13:53:14.362Z,1.80
2022-09-17T13:54:36.660Z,1.73
2022-09-17T13:55:50.198Z,2.35
2022-09-17T13:57:09.386Z,1.55
2022-09-17T13:58:20.889Z,2.42
2022-09-17T13:59:32.689Z,1.60
2022-09-17T14:00:50.755Z,1.45
2022-09-17T14:02:30.090Z,1.42
2022-09-17T14:03:44.447Z,2.00
2022-09-17T14:04:57.676Z,3.35
2022-09-17T14:06:09.427Z,2.05
2022-09-17T14:07:24.106Z,3.65
2022-09-17T14:08:45.081Z,2.85
2022-09-17T14:09:57.735Z,2.15
2022-09-17T14:11:33.541Z,1.60
2022-09-17T14:13:00.790Z,1.92
2022-09-17T14:14:12.219Z,1.75
2022-09-17T14:15:39.534Z,1.75
2022-09-17T14:16:51.594Z,2.38
2022-09-17T14:18:22.971Z,1.50
2022-09-17T14:20:03.960Z,1.75
2022-09-17T14:21:25.213Z,2.72
2022-09-17T14:22:36.872Z,2.28
2022-09-17T14:23:52.394Z,2.08
2022-09-17T14:25:03.999Z,4.65
2022-09-17T14:26:38.716Z,3.97
2022-09-17T14:27:58.223Z,2.47
2022-09-17T14:29:30.170Z,3.53
2022-09-17T14:30:44.117Z,2.67
2022-09-17T14:31:55.943Z,2.45
2022-09-17T14:33:18.793Z,5.95
2022-09-17T14:34:31.627Z,3.90
2022-09-17T14:35:44.314Z,2.22
2022-09-17T14:36:56.682Z,3.07
2022-09-17T14:38:11.969Z,3.00
2022-09-17T14:39:24.963Z,3.50
2022-09-17T14:40:36.610Z,2.53
2022-09-17T14:41:49.148Z,2.13
